createdAt,value
2019-03-03T00:00:22.913Z,1005.91
2019-03-03T00:01:23.093Z,1005.91
2019-03-03T00:02:22.857Z,1005.91
2019-03-03T00:03:22.844Z,1005.85
2019-03-03T00:04:22.833Z,1005.82
2019-03-03T00:05:22.853Z,1005.83
2019-03-03T00:06:22.812Z,1005.88
2019-03-03T00:07:22.874Z,1005.88
2019-03-03T00:08:24.584Z,1005.90
2019-03-03T00:09:22.783Z,1005.85
2019-03-03T00:10:22.769Z,1005.86
2019-03-03T00:11:22.775Z,1005.84
2019-03-03T00:12:22.755Z,1005.80
2019-03-03T00:13:22.845Z,1005.81
2019-03-03T00:14:22.818Z,1005.79
2019-03-03T00:15:22.714Z,1005.73
2019-03-03T00:16:22.702Z,1005.74
2019-03-03T00:17:22.721Z,1005.67
2019-03-03T00:18:22.680Z,1005.71
2019-03-03T00:19:22.670Z,1005.65
2019-03-03T00:20:22.731Z,1005.63
2019-03-03T00:21:22.648Z,1005.55
2019-03-03T00:22:22.639Z,1005.56
2019-03-03T00:23:22.628Z,1005.51
2019-03-03T00:24:22.618Z,1005.47
2019-03-03T00:25:22.613Z,1005.52
2019-03-03T00:26:22.691Z,1005.44
2019-03-03T00:27:22.677Z,1005.50
2019-03-03T00:28:22.571Z,1005.50
2019-03-03T00:29:22.558Z,1005.49
2019-03-03T00:30:22.554Z,1005.47
2019-03-03T00:31:22.535Z,1005.45
2019-03-03T00:32:22.544Z,1005.42
2019-03-03T00:33:22.574Z,1005.42
2019-03-03T00:34:22.525Z,1005.41
2019-03-03T00:35:22.497Z,1005.46
2019-03-03T00:36:22.484Z,1005.40
2019-03-03T00:37:22.469Z,1005.38
2019-03-03T00:38:22.465Z,1005.39
2019-03-03T00:39:22.542Z,1005.38
2019-03-03T00:40:22.437Z,1005.38
2019-03-03T00:41:22.426Z,1005.39
2019-03-03T00:42:22.415Z,1005.35
2019-03-03T00:43:22.413Z,1005.33
2019-03-03T00:44:22.509Z,1005.37
2019-03-03T00:45:22.385Z,1005.40
2019-03-03T00:46:22.383Z,1005.41
2019-03-03T00:47:22.560Z,1005.37
2019-03-03T00:48:22.373Z,1005.35
2019-03-03T00:49:22.493Z,1005.32
2019-03-03T00:50:22.429Z,1005.34
2019-03-03T00:51:22.318Z,1005.31
2019-03-03T00:52:22.351Z,1005.29
2019-03-03T00:53:22.302Z,1005.27
2019-03-03T00:54:22.285Z,1005.28
2019-03-03T00:55:22.307Z,1005.23
2019-03-03T00:56:22.334Z,1005.26
2019-03-03T00:57:22.260Z,1005.21
2019-03-03T00:58:22.262Z,1005.29
2019-03-03T00:59:22.231Z,1005.19
2019-03-03T01:00:22.237Z,1005.24
2019-03-03T01:01:22.208Z,1005.21
2019-03-03T01:02:22.285Z,1005.22
2019-03-03T01:03:22.197Z,1005.19
2019-03-03T01:04:22.176Z,1005.14
2019-03-03T01:05:22.169Z,1005.18
2019-03-03T01:06:22.173Z,1005.18
2019-03-03T01:07:22.141Z,1005.18
2019-03-03T01:08:22.197Z,1005.18
2019-03-03T01:09:22.123Z,1005.16
2019-03-03T01:10:22.118Z,1005.10
2019-03-03T01:11:22.115Z,1005.17
2019-03-03T01:12:22.201Z,1005.10
2019-03-03T01:13:22.114Z,1005.16
2019-03-03T01:14:22.069Z,1005.14
2019-03-03T01:15:22.165Z,1005.15
2019-03-03T01:16:22.043Z,1005.10
2019-03-03T01:17:22.150Z,1005.11
2019-03-03T01:18:22.025Z,1005.14
2019-03-03T01:19:22.011Z,1005.11
2019-03-03T01:20:22.176Z,1005.14
2019-03-03T01:21:21.989Z,1005.14
2019-03-03T01:22:21.979Z,1005.12
2019-03-03T01:23:21.991Z,1005.12
2019-03-03T01:24:21.954Z,1005.14
2019-03-03T01:25:21.945Z,1005.15
2019-03-03T01:26:22.023Z,1005.16
2019-03-03T01:27:21.928Z,1005.11
2019-03-03T01:28:21.922Z,1005.18
2019-03-03T01:29:21.901Z,1005.12
2019-03-03T01:30:21.890Z,1005.13
2019-03-03T01:31:22.001Z,1005.18
2019-03-03T01:32:21.870Z,1005.14
2019-03-03T01:33:21.857Z,1005.17
2019-03-03T01:34:21.864Z,1005.12
2019-03-03T01:35:21.875Z,1005.10
2019-03-03T01:36:21.823Z,1005.11
2019-03-03T01:37:21.887Z,1005.08
2019-03-03T01:38:21.803Z,1005.08
2019-03-03T01:39:21.807Z,1005.07
2019-03-03T01:40:21.806Z,1005.00
2019-03-03T01:41:21.778Z,1005.02
2019-03-03T01:42:21.870Z,1005.01
2019-03-03T01:43:21.812Z,1004.97
2019-03-03T01:44:21.739Z,1004.95
2019-03-03T01:45:21.727Z,1004.95
2019-03-03T01:46:21.718Z,1004.98
2019-03-03T01:47:21.716Z,1004.89
2019-03-03T01:48:21.759Z,1004.92
2019-03-03T01:49:21.736Z,1004.87
2019-03-03T01:50:21.669Z,1004.92
2019-03-03T01:51:21.657Z,1004.84
2019-03-03T01:52:21.652Z,1004.84
2019-03-03T01:53:21.640Z,1004.86
2019-03-03T01:54:21.633Z,1004.88
2019-03-03T01:55:21.687Z,1004.83
2019-03-03T01:56:21.670Z,1004.88
2019-03-03T01:57:21.612Z,1004.85
2019-03-03T01:58:21.586Z,1004.84
2019-03-03T01:59:21.584Z,1004.82
2019-03-03T02:00:21.764Z,1004.79
2019-03-03T02:01:21.591Z,1004.78
2019-03-03T02:02:21.672Z,1004.77
2019-03-03T02:03:21.580Z,1004.75
2019-03-03T02:04:21.600Z,1004.75
2019-03-03T02:05:21.606Z,1004.70
2019-03-03T02:06:22.050Z,1004.72
2019-03-03T02:07:22.453Z,1004.68
2019-03-03T02:08:21.971Z,1004.65
2019-03-03T02:09:21.628Z,1004.66
2019-03-03T02:10:21.538Z,1004.64
2019-03-03T02:11:21.440Z,1004.60
2019-03-03T02:12:21.429Z,1004.51
2019-03-03T02:13:21.422Z,1004.56
2019-03-03T02:14:21.406Z,1004.54
2019-03-03T02:15:21.527Z,1004.55
2019-03-03T02:16:21.655Z,1004.50
2019-03-03T02:17:21.373Z,1004.59
2019-03-03T02:18:21.379Z,1004.63
2019-03-03T02:19:21.370Z,1004.54
2019-03-03T02:20:21.342Z,1004.54
2019-03-03T02:21:21.337Z,1004.50
2019-03-03T02:22:21.422Z,1004.54
2019-03-03T02:23:21.341Z,1004.45
2019-03-03T02:24:21.298Z,1004.45
2019-03-03T02:25:21.317Z,1004.49
2019-03-03T02:26:21.328Z,1004.47
2019-03-03T02:27:21.341Z,1004.44
2019-03-03T02:28:21.357Z,1004.41
2019-03-03T02:29:21.331Z,1004.49
2019-03-03T02:30:21.309Z,1004.41
2019-03-03T02:31:21.366Z,1004.42
2019-03-03T02:32:21.300Z,1004.43
2019-03-03T02:33:21.518Z,1004.44
2019-03-03T02:34:21.304Z,1004.39
2019-03-03T02:35:21.314Z,1004.36
2019-03-03T02:36:21.355Z,1004.35
2019-03-03T02:37:21.324Z,1004.36
2019-03-03T02:38:21.291Z,1004.36
2019-03-03T02:39:21.332Z,1004.31
2019-03-03T02:40:21.286Z,1004.33
2019-03-03T02:41:21.277Z,1004.31
2019-03-03T02:42:21.396Z,1004.35
2019-03-03T02:43:21.274Z,1004.33
2019-03-03T02:44:22.789Z,1004.24
2019-03-03T02:45:21.296Z,1004.26
2019-03-03T02:46:21.292Z,1004.27
2019-03-03T02:47:21.273Z,1004.19
2019-03-03T02:48:21.298Z,1004.24
2019-03-03T02:49:21.372Z,1004.23
2019-03-03T02:50:21.283Z,1004.25
2019-03-03T02:51:21.004Z,1004.24
2019-03-03T02:52:20.992Z,1004.18
2019-03-03T02:53:21.306Z,1004.20
2019-03-03T02:54:20.973Z,1004.23
2019-03-03T02:55:20.971Z,1004.20
2019-03-03T02:56:21.461Z,1004.20
2019-03-03T02:57:20.934Z,1004.22
2019-03-03T02:58:20.923Z,1004.17
2019-03-03T02:59:21.272Z,1004.17
2019-03-03T03:00:20.951Z,1004.21
2019-03-03T03:01:20.899Z,1004.17
2019-03-03T03:02:20.881Z,1004.16
2019-03-03T03:03:20.908Z,1004.20
2019-03-03T03:04:20.864Z,1004.18
2019-03-03T03:05:21.156Z,1004.13
2019-03-03T03:06:20.838Z,1004.13
2019-03-03T03:07:21.442Z,1004.17
2019-03-03T03:08:20.840Z,1004.17
2019-03-03T03:09:20.814Z,1004.16
2019-03-03T03:10:20.809Z,1004.19
2019-03-03T03:11:20.860Z,1004.18
2019-03-03T03:12:20.774Z,1004.07
2019-03-03T03:14:32.085Z,1004.13
2019-03-03T03:15:32.025Z,1004.08
2019-03-03T03:16:32.031Z,1004.08
2019-03-03T03:17:32.008Z,1004.03
2019-03-03T03:18:31.996Z,1003.98
2019-03-03T03:19:31.990Z,1004.03
2019-03-03T03:20:32.074Z,1004.03
2019-03-03T03:21:31.958Z,1003.96
2019-03-03T03:22:31.953Z,1003.95
2019-03-03T03:23:31.940Z,1003.96
2019-03-03T03:24:31.943Z,1003.93
2019-03-03T03:25:32.027Z,1003.89
2019-03-03T03:26:31.909Z,1003.90
2019-03-03T03:27:31.893Z,1003.88
2019-03-03T03:28:31.887Z,1003.85
2019-03-03T03:29:31.885Z,1003.83
2019-03-03T03:30:31.871Z,1003.81
2019-03-03T03:31:31.932Z,1003.78
2019-03-03T03:32:31.850Z,1003.78
2019-03-03T03:33:31.831Z,1003.79
2019-03-03T03:34:31.819Z,1003.77
2019-03-03T03:35:31.814Z,1003.79
2019-03-03T03:36:31.797Z,1003.80
2019-03-03T03:37:31.887Z,1003.71
2019-03-03T03:38:31.791Z,1003.74
2019-03-03T03:39:31.802Z,1003.73
2019-03-03T03:40:31.754Z,1003.70
2019-03-03T03:41:31.742Z,1003.70
2019-03-03T03:42:31.845Z,1003.67
2019-03-03T03:43:31.725Z,1003.65
2019-03-03T03:44:31.710Z,1003.66
2019-03-03T03:45:31.951Z,1003.65
2019-03-03T03:46:31.689Z,1003.61
2019-03-03T03:47:31.676Z,1003.58
2019-03-03T03:48:31.758Z,1003.55
2019-03-03T03:49:31.658Z,1003.56
2019-03-03T03:50:31.645Z,1003.48
2019-03-03T03:51:31.632Z,1003.51
2019-03-03T03:52:31.624Z,1003.47
2019-03-03T03:53:31.689Z,1003.49
2019-03-03T03:54:31.633Z,1003.46
2019-03-03T03:55:31.685Z,1003.44
2019-03-03T03:56:31.582Z,1003.42
2019-03-03T03:57:31.565Z,1003.38
2019-03-03T03:58:31.556Z,1003.30
2019-03-03T03:59:31.547Z,1003.33
2019-03-03T04:00:31.605Z,1003.36
2019-03-03T04:01:31.581Z,1003.33
2019-03-03T04:02:31.535Z,1003.35
2019-03-03T04:03:31.499Z,1003.36
2019-03-03T04:04:31.493Z,1003.38
2019-03-03T04:05:31.484Z,1003.39
2019-03-03T04:06:31.538Z,1003.33
2019-03-03T04:07:31.466Z,1003.34
2019-03-03T04:08:31.444Z,1003.28
2019-03-03T04:09:31.435Z,1003.23
2019-03-03T04:10:31.538Z,1003.26
2019-03-03T04:11:31.419Z,1003.30
2019-03-03T04:12:31.495Z,1003.30
2019-03-03T04:13:31.410Z,1003.28
2019-03-03T04:15:07.306Z,1003.28
2019-03-03T04:15:31.386Z,1003.33
2019-03-03T04:16:31.360Z,1003.27
2019-03-03T04:17:31.438Z,1003.29
2019-03-03T04:18:31.342Z,1003.22
2019-03-03T04:19:31.323Z,1003.16
2019-03-03T04:20:31.318Z,1003.09
2019-03-03T04:21:31.304Z,1003.08
2019-03-03T04:22:31.293Z,1003.14
2019-03-03T04:23:31.399Z,1003.05
2019-03-03T04:24:31.270Z,1003.03
2019-03-03T04:25:31.259Z,1003.02
2019-03-03T04:26:31.253Z,1002.99
2019-03-03T04:27:31.245Z,1003.02
2019-03-03T04:28:31.245Z,1003.02
2019-03-03T04:29:31.423Z,1002.99
2019-03-03T04:30:31.204Z,1003.03
2019-03-03T04:31:31.261Z,1002.95
2019-03-03T04:32:31.182Z,1002.91
2019-03-03T04:33:31.177Z,1002.92
2019-03-03T04:34:31.159Z,1002.91
2019-03-03T04:35:31.267Z,1002.92
2019-03-03T04:36:31.142Z,1002.92
2019-03-03T04:37:31.128Z,1002.87
2019-03-03T04:38:31.145Z,1002.91
2019-03-03T04:39:31.180Z,1002.87
2019-03-03T04:40:31.097Z,1002.89
2019-03-03T04:41:31.082Z,1002.90
2019-03-03T04:42:31.072Z,1002.89
2019-03-03T04:43:31.084Z,1002.83
2019-03-03T04:44:31.050Z,1002.82
2019-03-03T04:45:31.137Z,1002.83
2019-03-03T04:46:31.244Z,1002.88
2019-03-03T04:47:31.016Z,1002.85
2019-03-03T04:48:31.012Z,1002.88
2019-03-03T04:49:30.997Z,1002.92
2019-03-03T04:50:31.059Z,1002.83
2019-03-03T04:51:31.042Z,1002.84
2019-03-03T04:52:31.034Z,1002.80
2019-03-03T04:53:30.967Z,1002.82
2019-03-03T04:54:30.943Z,1002.77
2019-03-03T04:55:30.930Z,1002.78
2019-03-03T04:56:30.926Z,1002.78
2019-03-03T04:57:30.911Z,1002.74
2019-03-03T04:58:30.980Z,1002.75
2019-03-03T04:59:30.907Z,1002.70
2019-03-03T05:00:30.913Z,1002.71
2019-03-03T05:01:30.868Z,1002.71
2019-03-03T05:02:30.859Z,1002.68
2019-03-03T05:03:31.161Z,1002.67
2019-03-03T05:04:30.865Z,1002.67
2019-03-03T05:05:30.826Z,1002.72
2019-03-03T05:06:30.812Z,1002.78
2019-03-03T05:07:30.801Z,1002.75
2019-03-03T05:08:30.805Z,1002.70
2019-03-03T05:09:30.900Z,1002.72
2019-03-03T05:10:30.782Z,1002.76
2019-03-03T05:11:30.759Z,1002.73
2019-03-03T05:12:30.769Z,1002.71
2019-03-03T05:13:30.736Z,1002.79
2019-03-03T05:14:30.875Z,1002.78
2019-03-03T05:16:40.600Z,1002.68
2019-03-03T05:17:40.501Z,1002.69
2019-03-03T05:18:40.490Z,1002.69
2019-03-03T05:19:40.477Z,1002.69
2019-03-03T05:20:40.467Z,1002.65
2019-03-03T05:21:40.577Z,1002.63
2019-03-03T05:22:40.440Z,1002.61
2019-03-03T05:23:40.452Z,1002.61
2019-03-03T05:24:40.450Z,1002.64
2019-03-03T05:25:40.419Z,1002.59
2019-03-03T05:26:40.474Z,1002.61
2019-03-03T05:27:40.475Z,1002.64
2019-03-03T05:28:40.377Z,1002.61
2019-03-03T05:29:40.365Z,1002.57
2019-03-03T05:30:40.358Z,1002.57
2019-03-03T05:31:40.345Z,1002.54
2019-03-03T05:32:40.334Z,1002.56
2019-03-03T05:33:40.434Z,1002.56
2019-03-03T05:34:40.311Z,1002.60
2019-03-03T05:35:40.308Z,1002.53
2019-03-03T05:36:40.296Z,1002.47
2019-03-03T05:37:40.293Z,1002.51
2019-03-03T05:38:40.278Z,1002.45
2019-03-03T05:39:40.343Z,1002.44
2019-03-03T05:40:40.270Z,1002.44
2019-03-03T05:41:40.251Z,1002.37
2019-03-03T05:42:40.230Z,1002.33
2019-03-03T05:43:40.215Z,1002.35
2019-03-03T05:44:40.349Z,1002.38
2019-03-03T05:45:40.214Z,1002.40
2019-03-03T05:46:42.717Z,1002.39
2019-03-03T05:47:40.206Z,1002.41
2019-03-03T05:48:40.195Z,1002.34
2019-03-03T05:49:40.189Z,1002.31
2019-03-03T05:50:40.335Z,1002.28
2019-03-03T05:51:40.340Z,1002.26
2019-03-03T05:52:40.116Z,1002.28
2019-03-03T05:53:40.107Z,1002.23
2019-03-03T05:54:40.094Z,1002.24
2019-03-03T05:55:40.085Z,1002.20
2019-03-03T05:56:40.168Z,1002.21
2019-03-03T05:57:40.063Z,1002.16
2019-03-03T05:58:40.052Z,1002.17
2019-03-03T05:59:40.054Z,1002.17
2019-03-03T06:00:40.112Z,1002.19
2019-03-03T06:01:40.122Z,1002.21
2019-03-03T06:02:40.003Z,1002.22
2019-03-03T06:03:39.997Z,1002.23
2019-03-03T06:04:39.988Z,1002.25
2019-03-03T06:05:39.974Z,1002.22
2019-03-03T06:06:39.963Z,1002.23
2019-03-03T06:07:40.633Z,1002.23
2019-03-03T06:08:39.940Z,1002.20
2019-03-03T06:09:39.935Z,1002.18
2019-03-03T06:10:39.963Z,1002.20
2019-03-03T06:11:39.990Z,1002.19
2019-03-03T06:12:39.897Z,1002.18
2019-03-03T06:13:39.914Z,1002.15
2019-03-03T06:14:39.882Z,1002.13
2019-03-03T06:15:39.883Z,1002.18
2019-03-03T06:16:39.924Z,1002.13
2019-03-03T06:17:39.845Z,1002.13
2019-03-03T06:18:39.832Z,1002.07
2019-03-03T06:19:39.928Z,1002.12
2019-03-03T06:20:39.816Z,1002.07
2019-03-03T06:21:39.809Z,1002.06
2019-03-03T06:22:39.788Z,1002.08
2019-03-03T06:23:39.803Z,1002.12
2019-03-03T06:24:39.765Z,1002.08
2019-03-03T06:25:39.829Z,1002.04
2019-03-03T06:26:39.744Z,1002.00
2019-03-03T06:27:39.796Z,1002.03
2019-03-03T06:28:39.808Z,1002.01
2019-03-03T06:29:39.917Z,1002.01
2019-03-03T06:30:39.711Z,1001.97
2019-03-03T06:31:39.815Z,1002.00
2019-03-03T06:32:39.678Z,1002.01
2019-03-03T06:33:39.671Z,1001.97
2019-03-03T06:34:39.657Z,1001.98
2019-03-03T06:35:39.647Z,1001.96
2019-03-03T06:36:39.658Z,1001.94
2019-03-03T06:37:39.706Z,1001.96
2019-03-03T06:38:39.611Z,1001.95
2019-03-03T06:39:39.605Z,1001.91
2019-03-03T06:40:39.591Z,1001.94
2019-03-03T06:41:39.660Z,1001.91
2019-03-03T06:42:39.647Z,1001.89
2019-03-03T06:43:39.760Z,1001.82
2019-03-03T06:44:39.618Z,1001.81
2019-03-03T06:45:39.535Z,1001.76
2019-03-03T06:46:39.524Z,1001.73
2019-03-03T06:47:39.515Z,1001.67
2019-03-03T06:48:39.586Z,1001.67
2019-03-03T06:49:39.501Z,1001.70
2019-03-03T06:50:39.488Z,1001.72
2019-03-03T06:51:39.499Z,1001.70
2019-03-03T06:52:39.463Z,1001.72
2019-03-03T06:53:39.519Z,1001.72
2019-03-03T06:54:39.443Z,1001.68
2019-03-03T06:55:39.428Z,1001.62
2019-03-03T06:56:39.421Z,1001.68
2019-03-03T06:57:39.408Z,1001.65
2019-03-03T06:58:39.397Z,1001.64
2019-03-03T06:59:39.454Z,1001.63
2019-03-03T07:00:39.399Z,1001.68
2019-03-03T07:01:39.492Z,1001.67
2019-03-03T07:02:39.357Z,1001.70
2019-03-03T07:03:39.343Z,1001.66
2019-03-03T07:04:39.333Z,1001.66
2019-03-03T07:05:39.324Z,1001.64
2019-03-03T07:06:39.411Z,1001.67
2019-03-03T07:07:39.298Z,1001.60
2019-03-03T07:08:39.287Z,1001.62
2019-03-03T07:09:39.275Z,1001.58
2019-03-03T07:10:39.261Z,1001.65
2019-03-03T07:11:39.255Z,1001.56
2019-03-03T07:12:39.325Z,1001.61
2019-03-03T07:13:39.232Z,1001.54
2019-03-03T07:14:39.218Z,1001.60
2019-03-03T07:15:39.208Z,1001.57
2019-03-03T07:16:39.227Z,1001.61
2019-03-03T07:17:39.196Z,1001.60
2019-03-03T07:18:39.365Z,1001.60
2019-03-03T07:19:39.172Z,1001.53
2019-03-03T07:20:39.152Z,1001.56
2019-03-03T07:21:39.149Z,1001.59
2019-03-03T07:22:39.155Z,1001.60
2019-03-03T07:23:39.122Z,1001.54
2019-03-03T07:24:39.189Z,1001.61
2019-03-03T07:25:39.096Z,1001.60
2019-03-03T07:26:39.086Z,1001.53
2019-03-03T07:27:39.075Z,1001.62
2019-03-03T07:28:39.132Z,1001.51
2019-03-03T07:29:39.052Z,1001.43
2019-03-03T07:30:39.038Z,1001.51
2019-03-03T07:31:39.029Z,1001.45
2019-03-03T07:32:39.016Z,1001.54
2019-03-03T07:33:39.044Z,1001.53
2019-03-03T07:34:39.075Z,1001.50
2019-03-03T07:35:38.994Z,1001.56
2019-03-03T07:36:38.973Z,1001.48
2019-03-03T07:37:38.962Z,1001.50
2019-03-03T07:38:38.957Z,1001.42
2019-03-03T07:39:38.955Z,1001.49
2019-03-03T07:40:39.005Z,1001.51
2019-03-03T07:41:43.302Z,1001.51
2019-03-03T07:42:38.940Z,1001.42
2019-03-03T07:43:38.894Z,1001.41
2019-03-03T07:44:38.891Z,1001.32
2019-03-03T07:45:38.870Z,1001.35
2019-03-03T07:46:38.946Z,1001.30
2019-03-03T07:48:02.739Z,1001.41
2019-03-03T07:48:38.845Z,1001.35
2019-03-03T07:49:38.829Z,1001.35
2019-03-03T07:50:38.838Z,1001.36
2019-03-03T07:51:38.811Z,1001.38
2019-03-03T07:52:38.951Z,1001.37
2019-03-03T07:53:38.790Z,1001.39
2019-03-03T07:54:38.886Z,1001.34
2019-03-03T07:55:38.766Z,1001.32
2019-03-03T07:56:38.755Z,1001.36
2019-03-03T07:57:38.745Z,1001.35
2019-03-03T07:58:38.848Z,1001.22
2019-03-03T07:59:38.720Z,1001.28
2019-03-03T08:00:38.707Z,1001.34
2019-03-03T08:01:38.702Z,1001.32
2019-03-03T08:02:38.699Z,1001.35
2019-03-03T08:03:38.673Z,1001.34
2019-03-03T08:04:38.765Z,1001.26
2019-03-03T08:05:38.652Z,1001.38
2019-03-03T08:06:38.770Z,1001.31
2019-03-03T08:07:38.632Z,1001.34
2019-03-03T08:08:38.620Z,1001.30
2019-03-03T08:09:38.624Z,1001.28
2019-03-03T08:10:38.685Z,1001.21
2019-03-03T08:11:38.616Z,1001.29
2019-03-03T08:12:39.219Z,1001.38
2019-03-03T08:13:38.579Z,1001.27
2019-03-03T08:14:38.551Z,1001.32
2019-03-03T08:15:38.540Z,1001.14
2019-03-03T08:16:38.616Z,1001.21
2019-03-03T08:17:38.526Z,1001.31
2019-03-03T08:18:38.507Z,1001.23
2019-03-03T08:19:38.670Z,1001.34
2019-03-03T08:20:38.491Z,1001.23
2019-03-03T08:21:38.571Z,1001.29
2019-03-03T08:22:38.490Z,1001.16
2019-03-03T08:23:38.455Z,1001.13
2019-03-03T08:24:38.443Z,1001.18
2019-03-03T08:25:38.430Z,1001.11
2019-03-03T08:26:38.417Z,1001.04
2019-03-03T08:27:38.518Z,1001.04
2019-03-03T08:28:38.421Z,1000.99
2019-03-03T08:29:38.387Z,1001.06
2019-03-03T08:30:38.371Z,1001.13
2019-03-03T08:31:38.363Z,1001.07
2019-03-03T08:32:38.397Z,1001.04
2019-03-03T08:33:38.422Z,1001.13
2019-03-03T08:34:38.349Z,1001.07
2019-03-03T08:35:38.330Z,1001.05
2019-03-03T08:36:38.308Z,1001.04
2019-03-03T08:37:38.306Z,1000.94
2019-03-03T08:38:38.303Z,1000.94
2019-03-03T08:39:38.454Z,1000.94
2019-03-03T08:40:38.271Z,1000.99
2019-03-03T08:41:38.268Z,1000.97
2019-03-03T08:42:38.242Z,1000.96
2019-03-03T08:43:38.230Z,1000.93
2019-03-03T08:44:38.219Z,1000.93
2019-03-03T08:45:38.377Z,1000.89
2019-03-03T08:46:38.225Z,1000.94
2019-03-03T08:47:38.211Z,1000.94
2019-03-03T08:48:38.215Z,1001.04
2019-03-03T08:49:38.191Z,1000.98
2019-03-03T08:50:38.354Z,1001.08
2019-03-03T08:51:38.229Z,1000.98
2019-03-03T08:52:38.136Z,1001.05
2019-03-03T08:53:38.143Z,1001.10
2019-03-03T08:54:38.297Z,1001.11
2019-03-03T08:55:38.209Z,1001.09
2019-03-03T08:56:38.151Z,1001.28
2019-03-03T08:57:38.101Z,1001.17
2019-03-03T08:58:38.073Z,1001.12
2019-03-03T08:59:38.054Z,1001.13
2019-03-03T09:00:38.041Z,1001.03
2019-03-03T09:01:38.221Z,1001.03
2019-03-03T09:02:38.028Z,1001.02
2019-03-03T09:03:38.032Z,1001.07
2019-03-03T09:04:38.155Z,1001.05
2019-03-03T09:05:38.057Z,1001.07
2019-03-03T09:06:38.062Z,1001.11
2019-03-03T09:07:38.072Z,1001.16
2019-03-03T09:08:37.978Z,1001.12
2019-03-03T09:09:37.941Z,1001.11
2019-03-03T09:10:37.945Z,1001.18
2019-03-03T09:11:37.927Z,1001.09
2019-03-03T09:12:37.985Z,1001.14
2019-03-03T09:13:38.033Z,1001.10
2019-03-03T09:14:37.884Z,1001.10
2019-03-03T09:15:37.876Z,1001.06
2019-03-03T09:16:37.862Z,1001.05
2019-03-03T09:17:37.853Z,1001.17
2019-03-03T09:18:52.756Z,1001.11
2019-03-03T09:19:37.921Z,1001.12
2019-03-03T09:20:37.819Z,1001.14
2019-03-03T09:21:37.808Z,1001.14
2019-03-03T09:22:37.814Z,1001.10
2019-03-03T09:23:37.795Z,1001.04
2019-03-03T09:24:37.781Z,1001.08
2019-03-03T09:25:37.931Z,1001.08
2019-03-03T09:26:37.756Z,1001.05
2019-03-03T09:27:37.748Z,1001.10
2019-03-03T09:28:37.760Z,1001.08
2019-03-03T09:29:37.719Z,1001.15
2019-03-03T09:30:37.712Z,1001.09
2019-03-03T09:31:37.760Z,1001.08
2019-03-03T09:32:37.685Z,1001.10
2019-03-03T09:33:39.389Z,1001.05
2019-03-03T09:34:37.664Z,1001.15
2019-03-03T09:35:37.752Z,1001.09
2019-03-03T09:36:37.733Z,1001.04
2019-03-03T09:37:37.648Z,1001.05
2019-03-03T09:38:37.622Z,1001.08
2019-03-03T09:39:37.608Z,1001.02
2019-03-03T09:40:37.598Z,1001.06
2019-03-03T09:41:37.666Z,1000.93
2019-03-03T09:42:37.577Z,1001.09
2019-03-03T09:43:37.574Z,1001.08
2019-03-03T09:44:37.555Z,1001.02
2019-03-03T09:45:37.593Z,1001.04
2019-03-03T09:46:37.595Z,1001.01
2019-03-03T09:47:37.655Z,1001.06
2019-03-03T09:48:37.509Z,1001.05
2019-03-03T09:49:37.500Z,1001.10
2019-03-03T09:50:37.496Z,1001.07
2019-03-03T09:51:37.475Z,1001.12
2019-03-03T09:52:37.598Z,1001.04
2019-03-03T09:53:37.451Z,1001.05
2019-03-03T09:54:37.541Z,1001.01
2019-03-03T09:55:37.435Z,1001.02
2019-03-03T09:56:37.444Z,1001.07
2019-03-03T09:57:37.415Z,1001.03
2019-03-03T09:58:37.397Z,1001.00
2019-03-03T09:59:37.387Z,1001.04
2019-03-03T10:00:37.435Z,1001.14
2019-03-03T10:01:37.367Z,1001.10
2019-03-03T10:02:37.413Z,1001.13
2019-03-03T10:03:37.399Z,1001.11
2019-03-03T10:04:37.558Z,1001.11
2019-03-03T10:05:37.411Z,1001.14
2019-03-03T10:06:37.322Z,1001.18
2019-03-03T10:07:37.298Z,1001.14
2019-03-03T10:08:37.289Z,1001.11
2019-03-03T10:09:37.292Z,1001.12
2019-03-03T10:10:37.298Z,1001.17
2019-03-03T10:11:37.373Z,1001.08
2019-03-03T10:12:37.255Z,1001.12
2019-03-03T10:13:37.246Z,1001.11
2019-03-03T10:14:37.219Z,1001.19
2019-03-03T10:15:37.210Z,1001.14
2019-03-03T10:16:37.212Z,1001.03
2019-03-03T10:17:37.249Z,1001.07
2019-03-03T10:18:37.178Z,1001.12
2019-03-03T10:19:37.166Z,1001.07
2019-03-03T10:20:37.154Z,1001.07
2019-03-03T10:21:37.232Z,1001.14
2019-03-03T10:22:37.149Z,1001.09
2019-03-03T10:23:37.205Z,1001.11
2019-03-03T10:24:37.108Z,1001.04
2019-03-03T10:25:37.098Z,1001.11
2019-03-03T10:26:37.088Z,1001.14
2019-03-03T10:27:37.079Z,1001.24
2019-03-03T10:28:37.063Z,1001.18
2019-03-03T10:29:37.161Z,1001.23
2019-03-03T10:30:37.043Z,1001.26
2019-03-03T10:31:37.029Z,1001.14
2019-03-03T10:32:37.063Z,1001.15
2019-03-03T10:33:37.011Z,1001.18
2019-03-03T10:34:37.035Z,1001.21
2019-03-03T10:35:37.071Z,1001.28
2019-03-03T10:36:36.976Z,1001.19
2019-03-03T10:37:36.962Z,1001.22
2019-03-03T10:38:36.953Z,1001.19
2019-03-03T10:39:36.960Z,1001.20
2019-03-03T10:40:37.038Z,1001.16
2019-03-03T10:41:36.942Z,1001.20
2019-03-03T10:42:36.911Z,1001.09
2019-03-03T10:43:36.902Z,1001.11
2019-03-03T10:44:36.892Z,1001.10
2019-03-03T10:45:37.066Z,1001.09
2019-03-03T10:46:36.865Z,1001.14
2019-03-03T10:47:36.856Z,1001.15
2019-03-03T10:48:36.855Z,1001.16
2019-03-03T10:49:36.829Z,1001.19
2019-03-03T10:50:36.922Z,1001.15
2019-03-03T10:51:36.848Z,1001.14
2019-03-03T10:52:36.797Z,1001.19
2019-03-03T10:53:36.791Z,1001.18
2019-03-03T10:54:36.782Z,1001.21
2019-03-03T10:55:36.778Z,1001.24
2019-03-03T10:56:36.898Z,1001.19
2019-03-03T10:57:36.749Z,1001.21
2019-03-03T10:58:36.748Z,1001.18
2019-03-03T10:59:36.733Z,1001.24
2019-03-03T11:00:36.717Z,1001.16
2019-03-03T11:01:36.705Z,1001.14
2019-03-03T11:02:36.884Z,1001.14
2019-03-03T11:03:36.683Z,1001.17
2019-03-03T11:04:36.703Z,1001.10
2019-03-03T11:05:36.664Z,1001.11
2019-03-03T11:06:36.668Z,1001.10
2019-03-03T11:07:36.755Z,1001.01
2019-03-03T11:08:36.693Z,1001.07
2019-03-03T11:09:36.634Z,1001.10
2019-03-03T11:10:36.607Z,1001.15
2019-03-03T11:11:36.601Z,1001.02
2019-03-03T11:12:36.585Z,1001.03
2019-03-03T11:13:36.678Z,1001.00
2019-03-03T11:14:36.665Z,1000.98
2019-03-03T11:15:36.562Z,1001.01
2019-03-03T11:16:36.549Z,1001.08
2019-03-03T11:17:36.540Z,1001.04
2019-03-03T11:18:36.523Z,1001.05
2019-03-03T11:19:37.426Z,1001.08
2019-03-03T11:20:36.499Z,1001.04
2019-03-03T11:21:36.524Z,1001.09
2019-03-03T11:22:36.563Z,1001.03
2019-03-03T11:23:36.480Z,1001.00
2019-03-03T11:24:36.460Z,1001.09
2019-03-03T11:25:36.735Z,1001.03
2019-03-03T11:26:36.438Z,1000.95
2019-03-03T11:27:36.423Z,1000.92
2019-03-03T11:28:36.425Z,1000.90
2019-03-03T11:29:36.407Z,1000.93
2019-03-03T11:30:39.356Z,1000.91
2019-03-03T11:31:36.483Z,1001.01
2019-03-03T11:32:36.467Z,1001.01
2019-03-03T11:33:36.352Z,1001.00
2019-03-03T11:34:36.483Z,1000.94
2019-03-03T11:35:36.331Z,1000.96
2019-03-03T11:36:36.323Z,1000.98
2019-03-03T11:37:36.441Z,1000.97
2019-03-03T11:38:36.318Z,1000.99
2019-03-03T11:39:36.289Z,1000.92
2019-03-03T11:40:36.332Z,1001.00
2019-03-03T11:41:36.275Z,1000.97
2019-03-03T11:42:36.288Z,1001.00
2019-03-03T11:43:36.414Z,1000.93
2019-03-03T11:44:36.263Z,1000.93
2019-03-03T11:45:36.235Z,1000.94
2019-03-03T11:46:36.232Z,1000.99
2019-03-03T11:47:36.238Z,1000.96
2019-03-03T11:48:36.247Z,1000.95
2019-03-03T11:49:36.356Z,1000.97
2019-03-03T11:50:36.219Z,1000.91
2019-03-03T11:51:36.722Z,1000.86
2019-03-03T11:52:36.156Z,1000.86
2019-03-03T11:53:36.151Z,1000.92
2019-03-03T11:54:36.298Z,1000.89
2019-03-03T11:55:36.131Z,1000.84
2019-03-03T11:56:36.122Z,1000.87
2019-03-03T11:57:36.164Z,1000.84
2019-03-03T11:58:36.082Z,1000.80
2019-03-03T11:59:36.077Z,1000.85
2019-03-03T12:00:36.147Z,1000.78
2019-03-03T12:01:36.323Z,1000.79
2019-03-03T12:02:36.032Z,1000.84
2019-03-03T12:03:36.039Z,1000.83
2019-03-03T12:04:36.030Z,1000.81
2019-03-03T12:05:36.016Z,1000.80
2019-03-03T12:06:36.101Z,1000.86
2019-03-03T12:07:35.979Z,1000.86